createdAt,value
2018-11-12T00:00:13.950Z,12.79
2018-11-12T00:01:14.175Z,12.75
2018-11-12T00:02:13.915Z,12.8
2018-11-12T00:03:14.197Z,12.8
2018-11-12T00:04:14.169Z,12.82
2018-11-12T00:05:14.166Z,12.79
2018-11-12T00:06:13.902Z,12.83
2018-11-12T00:07:14.166Z,12.8
2018-11-12T00:08:13.886Z,12.79
2018-11-12T00:09:14.149Z,12.8
2018-11-12T00:10:14.149Z,12.78
2018-11-12T00:11:14.133Z,12.75
2018-11-12T00:12:13.886Z,12.76
2018-11-12T00:13:13.880Z,12.65
2018-11-12T00:14:14.121Z,12.75
2018-11-12T00:15:13.601Z,12.72
2018-11-12T00:16:14.113Z,12.62
2018-11-12T00:17:14.100Z,12.61
2018-11-12T00:18:14.112Z,12.54
2018-11-12T00:19:13.840Z,12.54
2018-11-12T00:20:14.129Z,12.5
2018-11-12T00:21:14.103Z,12.43
2018-11-12T00:22:14.130Z,12.39
2018-11-12T00:23:14.087Z,12.36
2018-11-12T00:24:14.101Z,12.37
2018-11-12T00:25:13.828Z,12.37
2018-11-12T00:26:13.825Z,12.32
2018-11-12T00:27:13.820Z,12.36
2018-11-12T00:28:14.073Z,12.24
2018-11-12T00:29:13.817Z,12.37
2018-11-12T00:30:13.546Z,12.37
2018-11-12T00:31:14.068Z,12.37
2018-11-12T00:32:13.792Z,12.45
2018-11-12T00:33:13.798Z,12.5
2018-11-12T00:34:14.057Z,12.47
2018-11-12T00:35:13.795Z,12.61
2018-11-12T00:36:14.043Z,12.67
2018-11-12T00:37:13.514Z,12.73
2018-11-12T00:38:13.793Z,12.79
2018-11-12T00:39:13.798Z,12.78
2018-11-12T00:40:14.023Z,12.78
2018-11-12T00:41:13.777Z,12.82
2018-11-12T00:42:13.742Z,12.75
2018-11-12T00:43:13.736Z,12.8
2018-11-12T00:44:13.498Z,12.83
2018-11-12T00:45:13.727Z,12.93
2018-11-12T00:46:13.759Z,12.79
2018-11-12T00:47:13.757Z,12.79
2018-11-12T00:48:13.740Z,12.79
2018-11-12T00:49:13.973Z,12.79
2018-11-12T00:50:13.728Z,12.75
2018-11-12T00:51:13.962Z,12.68
2018-11-12T00:52:13.703Z,12.73
2018-11-12T00:53:13.951Z,12.7
2018-11-12T00:54:13.955Z,12.65
2018-11-12T00:55:13.443Z,12.67
2018-11-12T00:56:13.701Z,12.76
2018-11-12T00:57:13.972Z,12.67
2018-11-12T00:58:13.941Z,12.72
2018-11-12T00:59:13.953Z,12.7
2018-11-12T01:00:13.944Z,12.72
2018-11-12T01:01:13.690Z,12.65
2018-11-12T01:02:13.701Z,12.72
2018-11-12T01:03:13.928Z,12.7
2018-11-12T01:04:13.950Z,12.64
2018-11-12T01:05:13.933Z,12.64
2018-11-12T01:06:13.399Z,12.64
2018-11-12T01:07:13.901Z,12.61
2018-11-12T01:08:13.641Z,12.55
2018-11-12T01:09:13.654Z,12.62
2018-11-12T01:10:13.900Z,12.64
2018-11-12T01:11:13.893Z,12.53
2018-11-12T01:12:13.650Z,12.45
2018-11-12T01:13:13.876Z,12.47
2018-11-12T01:14:13.376Z,12.37
2018-11-12T01:15:13.646Z,12.31
2018-11-12T01:16:13.770Z,12.29
2018-11-12T01:17:13.617Z,12.2
2018-11-12T01:18:13.586Z,12.18
2018-11-12T01:19:13.600Z,12.1
2018-11-12T01:20:13.835Z,12.09
2018-11-12T01:21:13.599Z,12.04
2018-11-12T01:22:13.595Z,11.97
2018-11-12T01:23:13.860Z,11.94
2018-11-12T01:24:13.593Z,11.91
2018-11-12T01:25:13.854Z,11.84
2018-11-12T01:26:13.570Z,11.86
2018-11-12T01:27:13.576Z,11.86
2018-11-12T01:28:13.831Z,11.8
2018-11-12T01:29:13.566Z,11.81
2018-11-12T01:30:13.815Z,11.78
2018-11-12T01:31:13.547Z,11.73
2018-11-12T01:32:13.297Z,11.73
2018-11-12T01:33:13.527Z,11.69
2018-11-12T01:34:13.298Z,11.72
2018-11-12T01:35:13.528Z,11.73
2018-11-12T01:36:13.780Z,11.75
2018-11-12T01:37:13.528Z,11.83
2018-11-12T01:38:13.785Z,11.73
2018-11-12T01:39:13.790Z,11.81
2018-11-12T01:40:13.506Z,11.78
2018-11-12T01:41:13.795Z,11.87
2018-11-12T01:42:14.245Z,11.81
2018-11-12T01:43:13.762Z,11.83
2018-11-12T01:44:13.754Z,11.95
2018-11-12T01:45:13.226Z,11.88
2018-11-12T01:46:13.266Z,11.84
2018-11-12T01:47:13.231Z,11.84
2018-11-12T01:48:13.730Z,11.88
2018-11-12T01:49:13.737Z,11.81
2018-11-12T01:50:13.488Z,11.78
2018-11-12T01:51:13.750Z,11.78
2018-11-12T01:52:13.713Z,11.69
2018-11-12T01:53:13.476Z,11.68
2018-11-12T01:54:13.743Z,11.65
2018-11-12T01:55:13.475Z,11.63
2018-11-12T01:56:13.708Z,11.52
2018-11-12T01:57:13.678Z,11.52
2018-11-12T01:58:13.675Z,11.54
2018-11-12T01:59:13.688Z,11.52
2018-11-12T02:00:13.692Z,11.54
2018-11-12T02:01:13.713Z,11.55
2018-11-12T02:02:13.426Z,11.52
2018-11-12T02:03:13.155Z,11.51
2018-11-12T02:04:13.685Z,11.55
2018-11-12T02:05:13.145Z,11.57
2018-11-12T02:06:13.661Z,11.55
2018-11-12T02:07:13.413Z,11.55
2018-11-12T02:08:13.649Z,11.52
2018-11-12T02:09:13.880Z,11.51
2018-11-12T02:10:13.636Z,11.5
2018-11-12T02:11:13.623Z,11.52
2018-11-12T02:12:13.625Z,11.43
2018-11-12T02:13:13.395Z,11.44
2018-11-12T02:14:13.365Z,11.43
2018-11-12T02:15:13.364Z,11.45
2018-11-12T02:16:13.612Z,11.44
2018-11-12T02:17:13.603Z,11.44
2018-11-12T02:18:13.599Z,11.44
2018-11-12T02:19:13.598Z,11.51
2018-11-12T02:20:13.592Z,11.51
2018-11-12T02:21:13.593Z,11.5
2018-11-12T02:22:13.331Z,11.45
2018-11-12T02:23:13.575Z,11.47
2018-11-12T02:24:13.059Z,11.47
2018-11-12T02:25:13.566Z,11.47
2018-11-12T02:26:13.304Z,11.4
2018-11-12T02:27:13.294Z,11.44
2018-11-12T02:28:13.295Z,11.44
2018-11-12T02:29:13.615Z,11.47
2018-11-12T02:30:13.288Z,11.44
2018-11-12T02:31:13.047Z,11.44
2018-11-12T02:32:13.554Z,11.45
2018-11-12T02:33:14.214Z,11.43
2018-11-12T02:34:13.535Z,11.36
2018-11-12T02:35:13.517Z,11.37
2018-11-12T02:36:13.272Z,11.33
2018-11-12T02:37:13.269Z,11.3
2018-11-12T02:38:13.517Z,11.29
2018-11-12T02:39:13.262Z,11.23
2018-11-12T02:40:13.258Z,11.23
2018-11-12T02:41:13.498Z,11.27
2018-11-12T02:42:13.251Z,11.17
2018-11-12T02:43:13.486Z,11.25
2018-11-12T02:44:13.481Z,11.23
2018-11-12T02:45:13.224Z,11.23
2018-11-12T02:46:12.980Z,11.19
2018-11-12T02:47:13.216Z,11.26
2018-11-12T02:48:13.475Z,11.33
2018-11-12T02:49:13.230Z,11.23
2018-11-12T02:50:13.215Z,11.33
2018-11-12T02:51:13.191Z,11.3
2018-11-12T02:52:13.450Z,11.33
2018-11-12T02:53:13.200Z,11.33
2018-11-12T02:54:13.451Z,11.27
2018-11-12T02:55:13.458Z,11.36
2018-11-12T02:56:13.452Z,11.33
2018-11-12T02:57:13.516Z,11.3
2018-11-12T02:58:13.438Z,11.27
2018-11-12T02:59:12.899Z,11.22
2018-11-12T03:00:13.434Z,11.14
2018-11-12T03:01:13.434Z,11.14
2018-11-12T03:02:13.426Z,11.15
2018-11-12T03:03:13.403Z,11.1
2018-11-12T03:04:13.400Z,11.19
2018-11-12T03:05:13.149Z,11.1
2018-11-12T03:06:12.879Z,11.18
2018-11-12T03:07:12.866Z,11.11
2018-11-12T03:08:13.130Z,11.14
2018-11-12T03:09:13.125Z,11.15
2018-11-12T03:10:13.369Z,11.1
2018-11-12T03:11:13.121Z,11.1
2018-11-12T03:12:13.112Z,11.04
2018-11-12T03:13:13.360Z,10.99
2018-11-12T03:14:13.346Z,11.05
2018-11-12T03:15:13.346Z,10.94
2018-11-12T03:16:13.361Z,10.94
2018-11-12T03:17:13.338Z,10.93
2018-11-12T03:18:13.079Z,10.82
2018-11-12T03:19:13.331Z,10.75
2018-11-12T03:20:13.324Z,10.82
2018-11-12T03:21:13.068Z,10.81
2018-11-12T03:22:13.060Z,10.76
2018-11-12T03:23:13.064Z,10.75
2018-11-12T03:24:13.324Z,10.72
2018-11-12T03:25:13.309Z,10.75
2018-11-12T03:26:12.805Z,10.74
2018-11-12T03:27:13.041Z,10.76
2018-11-12T03:28:12.770Z,10.71
2018-11-12T03:29:13.288Z,10.72
2018-11-12T03:30:13.291Z,10.78
2018-11-12T03:31:13.288Z,10.75
2018-11-12T03:32:13.012Z,10.72
2018-11-12T03:33:13.282Z,10.72
2018-11-12T03:34:13.281Z,10.75
2018-11-12T03:35:13.291Z,10.71
2018-11-12T03:36:12.995Z,10.59
2018-11-12T03:37:13.241Z,10.59
2018-11-12T03:38:12.992Z,10.67
2018-11-12T03:39:12.718Z,10.64
2018-11-12T03:40:12.996Z,10.61
2018-11-12T03:41:12.970Z,10.61
2018-11-12T03:42:12.978Z,10.57
2018-11-12T03:43:12.973Z,10.54
2018-11-12T03:44:13.219Z,10.57
2018-11-12T03:45:12.959Z,10.6
2018-11-12T03:46:13.200Z,10.56
2018-11-12T03:47:12.955Z,10.51
2018-11-12T03:48:12.936Z,10.57
2018-11-12T03:49:13.184Z,10.53
2018-11-12T03:50:12.923Z,10.46
2018-11-12T03:51:13.174Z,10.44
2018-11-12T03:52:12.920Z,10.42
2018-11-12T03:53:13.182Z,10.49
2018-11-12T03:54:12.898Z,10.42
2018-11-12T03:55:12.917Z,10.4
2018-11-12T03:56:12.922Z,10.44
2018-11-12T03:57:13.158Z,10.46
2018-11-12T03:58:13.155Z,10.54
2018-11-12T03:59:12.891Z,10.56
2018-11-12T04:00:13.424Z,10.48
2018-11-12T04:01:12.872Z,10.54
2018-11-12T04:02:12.868Z,10.56
2018-11-12T04:03:13.122Z,10.51
2018-11-12T04:04:13.173Z,10.49
2018-11-12T04:05:13.104Z,10.46
2018-11-12T04:06:13.105Z,10.38
2018-11-12T04:07:13.101Z,10.44
2018-11-12T04:08:13.100Z,10.46
2018-11-12T04:09:12.837Z,10.51
2018-11-12T04:10:13.093Z,10.49
2018-11-12T04:11:12.617Z,10.54
2018-11-12T04:12:13.106Z,10.48
2018-11-12T04:13:13.074Z,10.56
2018-11-12T04:14:12.811Z,10.56
2018-11-12T04:15:12.548Z,10.54
2018-11-12T04:16:12.790Z,10.61
2018-11-12T04:17:12.791Z,10.63
2018-11-12T04:18:13.046Z,10.64
2018-11-12T04:19:12.539Z,10.6
2018-11-12T04:20:12.780Z,10.59
2018-11-12T04:21:12.767Z,10.54
2018-11-12T04:22:12.781Z,10.53
2018-11-12T04:23:13.020Z,10.57
2018-11-12T04:24:12.764Z,10.49
2018-11-12T04:25:13.013Z,10.46
2018-11-12T04:26:12.742Z,10.49
2018-11-12T04:27:12.754Z,10.54
2018-11-12T04:28:13.007Z,10.46
2018-11-12T04:29:12.729Z,10.35
2018-11-12T04:30:13.003Z,10.4
2018-11-12T04:31:12.989Z,10.44
2018-11-12T04:32:12.993Z,10.37
2018-11-12T04:33:12.729Z,10.31
2018-11-12T04:34:13.760Z,10.4
2018-11-12T04:35:12.704Z,10.33
2018-11-12T04:36:12.702Z,10.25
2018-11-12T04:37:12.689Z,10.33
2018-11-12T04:38:12.948Z,10.3
2018-11-12T04:39:12.417Z,10.3
2018-11-12T04:40:12.676Z,10.28
2018-11-12T04:41:12.664Z,10.28
2018-11-12T04:42:12.659Z,10.28
2018-11-12T04:43:12.679Z,10.28
2018-11-12T04:44:12.656Z,10.23
2018-11-12T04:45:12.643Z,10.25
2018-11-12T04:46:12.913Z,10.33
2018-11-12T04:47:12.376Z,10.28
2018-11-12T04:48:12.636Z,10.25
2018-11-12T04:49:12.911Z,10.22
2018-11-12T04:50:12.883Z,10.19
2018-11-12T04:51:12.888Z,10.12
2018-11-12T04:52:12.611Z,10.13
2018-11-12T04:53:12.615Z,10.17
2018-11-12T04:54:12.627Z,10.12
2018-11-12T04:55:13.209Z,10.09
2018-11-12T04:56:12.590Z,10.13
2018-11-12T04:57:12.589Z,10.23
2018-11-12T04:58:12.840Z,10.13
2018-11-12T04:59:12.660Z,10.26
2018-11-12T05:00:12.585Z,10.17
2018-11-12T05:01:12.574Z,10.2
2018-11-12T05:02:12.301Z,10.19
2018-11-12T05:03:12.548Z,10.34
2018-11-12T05:04:12.814Z,10.28
2018-11-12T05:05:12.829Z,10.31
2018-11-12T05:06:12.819Z,10.31
2018-11-12T05:07:12.802Z,10.33
2018-11-12T05:08:12.788Z,10.35
2018-11-12T05:09:12.790Z,10.31
2018-11-12T05:10:12.783Z,10.31
2018-11-12T05:11:12.807Z,10.31
2018-11-12T05:12:12.756Z,10.31
2018-11-12T05:13:12.761Z,10.31
2018-11-12T05:14:12.743Z,10.23
2018-11-12T05:15:12.258Z,10.26
2018-11-12T05:16:12.510Z,10.28
2018-11-12T05:17:12.216Z,10.26
2018-11-12T05:18:12.728Z,10.19
2018-11-12T05:19:12.738Z,10.15
2018-11-12T05:20:12.728Z,10.23
2018-11-12T05:21:12.467Z,10.16
2018-11-12T05:22:12.718Z,10.23
2018-11-12T05:23:12.726Z,10.19
2018-11-12T05:24:12.700Z,10.15
2018-11-12T05:25:12.458Z,10.15
2018-11-12T05:26:12.709Z,10.13
2018-11-12T05:27:12.682Z,10.16
2018-11-12T05:28:12.429Z,10.23
2018-11-12T05:29:12.153Z,10.17
2018-11-12T05:30:12.440Z,10.15
2018-11-12T05:31:12.401Z,10.17
2018-11-12T05:32:12.649Z,10.25
2018-11-12T05:33:12.395Z,10.2
2018-11-12T05:34:12.644Z,10.26
2018-11-12T05:35:12.636Z,10.28
2018-11-12T05:36:12.376Z,10.25
2018-11-12T05:37:12.366Z,10.28
2018-11-12T05:38:12.847Z,10.3
2018-11-12T05:39:12.621Z,10.3
2018-11-12T05:40:12.354Z,10.17
2018-11-12T05:41:12.346Z,10.22
2018-11-12T05:42:12.090Z,10.22
2018-11-12T05:43:12.082Z,10.3
2018-11-12T05:44:12.338Z,10.34
2018-11-12T05:45:12.583Z,10.34
2018-11-12T05:46:12.333Z,10.33
2018-11-12T05:47:12.585Z,10.4
2018-11-12T05:48:12.066Z,10.4
2018-11-12T05:49:12.563Z,10.44
2018-11-12T05:50:12.036Z,10.57
2018-11-12T05:51:12.034Z,10.61
2018-11-12T05:52:12.279Z,10.61
2018-11-12T05:53:12.055Z,10.64
2018-11-12T05:54:12.542Z,10.71
2018-11-12T05:55:12.525Z,10.72
2018-11-12T05:56:12.021Z,10.68
2018-11-12T05:57:12.562Z,10.71
2018-11-12T05:58:11.998Z,10.72
2018-11-12T05:59:12.809Z,10.75
2018-11-12T06:00:12.516Z,10.74
2018-11-12T06:01:12.512Z,10.68
2018-11-12T06:02:12.242Z,10.71
2018-11-12T06:03:12.505Z,10.69
2018-11-12T06:04:13.053Z,10.63
2018-11-12T06:05:12.229Z,10.74
2018-11-12T06:06:11.964Z,10.68
2018-11-12T06:07:12.475Z,10.63
2018-11-12T06:08:12.471Z,10.64
2018-11-12T06:09:11.955Z,10.6
2018-11-12T06:10:12.208Z,10.64
2018-11-12T06:11:12.189Z,10.69
2018-11-12T06:12:12.455Z,10.68
2018-11-12T06:13:12.196Z,10.67
2018-11-12T06:14:12.168Z,10.63
2018-11-12T06:15:12.426Z,10.6
2018-11-12T06:16:11.899Z,10.59
2018-11-12T06:17:12.164Z,10.59
2018-11-12T06:18:12.472Z,10.61
2018-11-12T06:19:12.405Z,10.63
2018-11-12T06:20:11.896Z,10.53
2018-11-12T06:21:12.185Z,10.69
2018-11-12T06:22:12.397Z,10.61
2018-11-12T06:23:12.142Z,10.56
2018-11-12T06:24:12.123Z,10.57
2018-11-12T06:25:12.370Z,10.56
2018-11-12T06:26:12.375Z,10.38
2018-11-12T06:27:12.360Z,10.41
2018-11-12T06:28:12.351Z,10.41
2018-11-12T06:29:12.102Z,10.26
2018-11-12T06:30:11.834Z,10.3
2018-11-12T06:31:12.176Z,10.23
2018-11-12T06:32:12.086Z,10.25
2018-11-12T06:33:12.343Z,10.17
2018-11-12T06:34:12.334Z,10.19
2018-11-12T06:35:12.327Z,10.23
2018-11-12T06:36:12.057Z,10.16
2018-11-12T06:37:12.318Z,10.07
2018-11-12T06:38:12.308Z,10.19
2018-11-12T06:39:12.300Z,10.15
2018-11-12T06:40:12.057Z,10.15
2018-11-12T06:41:12.046Z,10.15
2018-11-12T06:42:12.032Z,10.19
2018-11-12T06:43:11.817Z,10.17
2018-11-12T06:44:12.288Z,10.16
2018-11-12T06:45:11.772Z,10.13
2018-11-12T06:46:11.858Z,10.16
2018-11-12T06:47:12.030Z,10.2
2018-11-12T06:48:12.266Z,10.17
2018-11-12T06:49:12.022Z,10.23
2018-11-12T06:50:12.249Z,10.13
2018-11-12T06:51:12.261Z,10.09
2018-11-12T06:52:12.253Z,10.12
2018-11-12T06:53:12.129Z,10.13
2018-11-12T06:54:12.237Z,10.23
2018-11-12T06:55:12.236Z,10.4
2018-11-12T06:56:11.705Z,10.75
2018-11-12T06:57:11.960Z,11.07
2018-11-12T06:58:11.966Z,11.33
2018-11-12T06:59:12.199Z,11.6
2018-11-12T07:00:11.962Z,11.94
2018-11-12T07:01:12.200Z,12.22
2018-11-12T07:02:12.188Z,12.47
2018-11-12T07:03:12.189Z,12.72
2018-11-12T07:04:11.929Z,12.85
2018-11-12T07:05:12.157Z,13
2018-11-12T07:06:11.938Z,13.33
2018-11-12T07:07:12.006Z,13.57
2018-11-12T07:08:11.968Z,13.65
2018-11-12T07:09:12.149Z,13.67
2018-11-12T07:10:12.146Z,13.89
2018-11-12T07:11:11.905Z,14.07
2018-11-12T07:12:12.168Z,14.18
2018-11-12T07:13:12.316Z,14.22
2018-11-12T07:14:12.158Z,14.25
2018-11-12T07:15:12.151Z,14.28
2018-11-12T07:16:12.135Z,14.17
2018-11-12T07:17:12.148Z,14
2018-11-12T07:18:11.899Z,13.59
2018-11-12T07:19:12.137Z,13.23
2018-11-12T07:20:11.889Z,12.79
2018-11-12T07:21:12.132Z,12.58
2018-11-12T07:22:12.148Z,12.46
2018-11-12T07:23:12.144Z,12.27
2018-11-12T07:24:12.142Z,12.13
2018-11-12T07:25:12.352Z,11.95
2018-11-12T07:26:12.126Z,11.87
2018-11-12T07:27:12.131Z,11.9
2018-11-12T07:28:12.126Z,12.09
2018-11-12T07:29:12.124Z,12.2
2018-11-12T07:30:12.146Z,12.24
2018-11-12T07:31:11.603Z,12.12
2018-11-12T07:32:11.874Z,12.17
2018-11-12T07:33:12.098Z,12.04
2018-11-12T07:34:11.844Z,11.88
2018-11-12T07:35:12.128Z,11.84
2018-11-12T07:36:11.829Z,11.81
2018-11-12T07:37:12.074Z,11.73
2018-11-12T07:38:11.829Z,11.59
2018-11-12T07:39:11.834Z,11.59
2018-11-12T07:40:11.843Z,11.6
2018-11-12T07:41:12.072Z,11.54
2018-11-12T07:42:12.151Z,11.55
2018-11-12T07:43:12.070Z,11.59
2018-11-12T07:44:12.074Z,11.55
2018-11-12T07:45:12.058Z,11.55
2018-11-12T07:46:11.577Z,11.52
2018-11-12T07:47:11.541Z,11.47
2018-11-12T07:48:12.070Z,11.55
2018-11-12T07:49:11.781Z,11.57
2018-11-12T07:50:12.049Z,11.62
2018-11-12T07:51:11.593Z,11.73
2018-11-12T07:52:12.047Z,11.69
2018-11-12T07:53:12.029Z,11.78
2018-11-12T07:54:11.767Z,11.83
2018-11-12T07:55:11.528Z,11.83
2018-11-12T07:56:11.953Z,11.88
2018-11-12T07:57:12.017Z,12.03
2018-11-12T07:58:12.002Z,12.06
2018-11-12T07:59:11.780Z,12.17
2018-11-12T08:00:11.496Z,12.24
2018-11-12T08:01:11.518Z,12.35
2018-11-12T08:02:11.735Z,12.32
2018-11-12T08:03:12.030Z,12.36
2018-11-12T08:04:12.000Z,12.46
2018-11-12T08:05:11.529Z,12.49
2018-11-12T08:06:11.495Z,12.67
2018-11-12T08:07:11.979Z,12.67
2018-11-12T08:08:11.521Z,12.78
2018-11-12T08:09:12.504Z,12.82
2018-11-12T08:10:11.981Z,12.93
2018-11-12T08:11:11.718Z,12.97
2018-11-12T08:12:11.477Z,13.08
2018-11-12T08:13:11.963Z,13.19
2018-11-12T08:14:11.724Z,13.19
2018-11-12T08:15:11.445Z,13.28
2018-11-12T08:16:11.974Z,13.38
2018-11-12T08:17:11.718Z,13.47
2018-11-12T08:18:11.949Z,13.56
2018-11-12T08:19:11.956Z,13.47
2018-11-12T08:20:11.695Z,13.53
2018-11-12T08:21:11.937Z,13.56
2018-11-12T08:22:11.934Z,13.7
2018-11-12T08:23:11.720Z,13.71
2018-11-12T08:24:12.357Z,13.72
2018-11-12T08:25:11.937Z,13.78
2018-11-12T08:26:11.932Z,13.83
2018-11-12T08:27:11.963Z,13.85
2018-11-12T08:28:11.665Z,13.85
2018-11-12T08:29:11.419Z,13.92
2018-11-12T08:30:12.608Z,13.93
2018-11-12T08:31:11.967Z,13.95
2018-11-12T08:32:11.670Z,13.93
2018-11-12T08:33:11.881Z,13.96
2018-11-12T08:34:11.671Z,13.93
2018-11-12T08:35:11.903Z,14.04
2018-11-12T08:36:11.846Z,14.11
2018-11-12T08:37:11.646Z,14.17
2018-11-12T08:38:11.416Z,14.22
2018-11-12T08:39:12.086Z,14.3
2018-11-12T08:40:11.977Z,14.43
2018-11-12T08:41:11.847Z,14.44
2018-11-12T08:42:11.915Z,14.45
2018-11-12T08:43:11.639Z,14.54
2018-11-12T08:44:11.652Z,14.63
2018-11-12T08:45:11.893Z,14.62
2018-11-12T08:46:12.046Z,14.66
2018-11-12T08:47:11.954Z,14.65
2018-11-12T08:48:11.967Z,14.66
2018-11-12T08:49:12.498Z,14.81
2018-11-12T08:50:12.202Z,14.7
2018-11-12T08:51:11.639Z,14.81
2018-11-12T08:52:12.139Z,14.88
2018-11-12T08:53:11.898Z,14.86
2018-11-12T08:54:11.884Z,14.91
2018-11-12T08:55:12.363Z,14.84
2018-11-12T08:56:11.875Z,14.94
2018-11-12T08:57:11.902Z,14.94
2018-11-12T08:58:13.259Z,14.99
2018-11-12T08:59:11.878Z,14.89
2018-11-12T09:00:11.637Z,14.91
2018-11-12T09:01:11.366Z,14.97
2018-11-12T09:02:11.644Z,14.91
2018-11-12T09:03:11.879Z,15.02
2018-11-12T09:04:11.864Z,15.04
2018-11-12T09:05:11.877Z,15.18
2018-11-12T09:06:11.872Z,15.17
2018-11-12T09:07:12.102Z,15.27
2018-11-12T09:08:11.621Z,15.35
2018-11-12T09:09:11.383Z,15.37
2018-11-12T09:10:12.379Z,15.46
2018-11-12T09:11:11.873Z,15.37
2018-11-12T09:12:11.618Z,15.4
2018-11-12T09:13:11.882Z,15.4
2018-11-12T09:14:11.866Z,15.46
2018-11-12T09:15:11.938Z,15.54
2018-11-12T09:16:11.613Z,15.54
2018-11-12T09:17:11.641Z,15.55
2018-11-12T09:18:11.914Z,15.54
2018-11-12T09:19:11.617Z,15.64
2018-11-12T09:20:11.902Z,15.65
2018-11-12T09:21:11.613Z,15.65
2018-11-12T09:22:11.857Z,15.61
2018-11-12T09:23:11.864Z,15.65
2018-11-12T09:24:11.670Z,15.59
2018-11-12T09:25:11.844Z,15.61
2018-11-12T09:26:11.340Z,15.76
2018-11-12T09:27:11.837Z,15.55
2018-11-12T09:28:12.320Z,15.65
2018-11-12T09:29:11.607Z,15.62
2018-11-12T09:30:11.362Z,15.59
2018-11-12T09:31:17.806Z,15.75
2018-11-12T09:32:11.869Z,15.73
2018-11-12T09:33:11.630Z,15.8
2018-11-12T09:34:11.849Z,15.92
2018-11-12T09:35:12.393Z,16.04
2018-11-12T09:36:11.619Z,16.09
2018-11-12T09:37:11.663Z,16.28
2018-11-12T09:38:11.775Z,16.43
2018-11-12T09:39:11.929Z,16.5
2018-11-12T09:40:11.328Z,16.74
2018-11-12T09:41:11.942Z,16.76
2018-11-12T09:42:11.582Z,16.87
2018-11-12T09:43:11.962Z,16.97
2018-11-12T09:44:11.612Z,17.01
2018-11-12T09:45:11.843Z,17.04
2018-11-12T09:46:12.020Z,16.96
2018-11-12T09:47:11.597Z,16.86
2018-11-12T09:48:11.583Z,16.79
2018-11-12T09:49:12.033Z,16.84
2018-11-12T09:50:11.829Z,16.79
2018-11-12T09:51:11.654Z,16.74
2018-11-12T09:52:11.664Z,16.74
2018-11-12T09:53:11.834Z,16.68
2018-11-12T09:54:11.421Z,16.78
2018-11-12T09:55:11.599Z,16.79
2018-11-12T09:56:11.609Z,16.81
2018-11-12T09:57:11.893Z,16.86
2018-11-12T09:58:11.589Z,16.81
2018-11-12T09:59:11.976Z,16.84
2018-11-12T10:00:12.068Z,16.99
2018-11-12T10:01:12.788Z,17.06
2018-11-12T10:02:14.598Z,17.06
2018-11-12T10:03:15.188Z,17.2
2018-11-12T10:04:15.623Z,17.31
2018-11-12T10:05:17.229Z,17.45
2018-11-12T10:06:18.251Z,17.49
2018-11-12T10:07:15.422Z,17.42
2018-11-12T10:08:13.717Z,17.49
2018-11-12T10:09:20.191Z,17.54
2018-11-12T10:10:23.448Z,17.7
2018-11-12T10:11:21.761Z,17.59
2018-11-12T10:12:18.635Z,17.67
2018-11-12T10:13:18.038Z,17.65
2018-11-12T10:14:16.935Z,17.54
2018-11-12T10:15:18.825Z,17.63
2018-11-12T10:16:19.844Z,17.68
2018-11-12T10:17:25.411Z,17.63
2018-11-12T10:18:15.028Z,17.7
2018-11-12T10:19:11.606Z,17.72
2018-11-12T10:20:11.706Z,17.6
2018-11-12T10:21:11.865Z,17.65
2018-11-12T10:22:11.610Z,17.63
2018-11-12T10:23:11.345Z,17.6
2018-11-12T10:24:11.608Z,17.67
2018-11-12T10:25:11.607Z,17.68
2018-11-12T10:26:11.598Z,17.68
2018-11-12T10:27:11.967Z,17.65
2018-11-12T10:28:11.868Z,17.72
2018-11-12T10:29:11.854Z,17.71
2018-11-12T10:30:11.864Z,17.68
2018-11-12T10:31:11.603Z,17.76
2018-11-12T10:32:11.610Z,17.63
2018-11-12T10:33:11.839Z,17.59
2018-11-12T10:34:11.856Z,17.56
2018-11-12T10:35:11.619Z,17.54
2018-11-12T10:36:11.865Z,17.63
2018-11-12T10:37:11.852Z,17.63
2018-11-12T10:38:11.872Z,17.6
2018-11-12T10:39:11.645Z,17.64
2018-11-12T10:40:11.617Z,17.63
2018-11-12T10:41:11.769Z,17.67
2018-11-12T10:42:11.658Z,17.68
2018-11-12T10:43:11.871Z,17.67
2018-11-12T10:44:11.359Z,17.68
2018-11-12T10:45:11.607Z,17.7
2018-11-12T10:46:11.700Z,17.67
2018-11-12T10:47:11.621Z,17.63
2018-11-12T10:48:12.242Z,17.52
2018-11-12T10:49:11.632Z,17.59
2018-11-12T10:50:11.612Z,17.6
2018-11-12T10:51:11.407Z,17.56
2018-11-12T10:52:11.618Z,17.63
2018-11-12T10:53:11.861Z,17.65
2018-11-12T10:54:12.145Z,17.72
2018-11-12T10:55:12.121Z,17.63
2018-11-12T10:56:11.839Z,17.64
2018-11-12T10:57:11.324Z,17.6
2018-11-12T10:58:11.876Z,17.63
2018-11-12T10:59:11.881Z,17.57
2018-11-12T11:00:11.702Z,17.45
2018-11-12T11:01:11.873Z,17.48
2018-11-12T11:02:11.345Z,17.51
2018-11-12T11:03:11.873Z,17.39
2018-11-12T11:04:11.875Z,17.45
2018-11-12T11:05:11.612Z,17.36
2018-11-12T11:06:11.623Z,17.39
2018-11-12T11:07:11.891Z,17.29
2018-11-12T11:08:12.101Z,17.34
2018-11-12T11:09:11.622Z,17.39
2018-11-12T11:10:11.368Z,17.39
2018-11-12T11:11:11.594Z,17.31
2018-11-12T11:12:11.340Z,17.42
2018-11-12T11:13:11.596Z,17.42
2018-11-12T11:14:11.599Z,17.36
2018-11-12T11:15:11.350Z,17.38
2018-11-12T11:16:11.863Z,17.42
2018-11-12T11:17:11.338Z,17.39
2018-11-12T11:18:11.864Z,17.33
2018-11-12T11:19:11.873Z,17.44
2018-11-12T11:20:11.604Z,17.31
2018-11-12T11:21:11.680Z,17.41
2018-11-12T11:22:11.841Z,17.39
2018-11-12T11:23:11.596Z,17.52
2018-11-12T11:24:11.660Z,17.48
2018-11-12T11:25:11.888Z,17.64
2018-11-12T11:26:11.859Z,17.65
2018-11-12T11:27:11.592Z,17.63
2018-11-12T11:28:11.854Z,17.63
2018-11-12T11:29:11.860Z,17.64
2018-11-12T11:30:11.613Z,17.67
2018-11-12T11:31:11.625Z,17.72
2018-11-12T11:32:11.623Z,17.68
2018-11-12T11:33:11.611Z,17.74
2018-11-12T11:34:11.866Z,17.7
2018-11-12T11:35:11.873Z,17.72
2018-11-12T11:36:14.295Z,17.68
2018-11-12T11:37:11.354Z,17.76
2018-11-12T11:38:11.862Z,17.68
2018-11-12T11:39:11.847Z,17.79
2018-11-12T11:40:11.680Z,17.8
2018-11-12T11:41:11.898Z,17.74
2018-11-12T11:42:11.627Z,17.72
2018-11-12T11:43:11.342Z,17.72
2018-11-12T11:44:11.615Z,17.71
2018-11-12T11:45:11.881Z,17.71
2018-11-12T11:46:11.911Z,17.71
2018-11-12T11:47:11.957Z,17.76
2018-11-12T11:48:11.844Z,17.71
2018-11-12T11:49:11.881Z,17.71
2018-11-12T11:50:11.881Z,17.76
2018-11-12T11:51:11.599Z,17.67
2018-11-12T11:52:11.428Z,17.71
2018-11-12T11:53:11.633Z,17.68
2018-11-12T11:54:11.341Z,17.71
2018-11-12T11:55:11.847Z,17.7
2018-11-12T11:56:11.651Z,17.76
2018-11-12T11:57:11.708Z,17.74
2018-11-12T11:58:11.645Z,17.85
2018-11-12T11:59:11.593Z,17.86
2018-11-12T12:00:11.594Z,17.78
2018-11-12T12:01:11.607Z,17.78
2018-11-12T12:02:12.036Z,17.74
2018-11-12T12:03:12.344Z,17.72
2018-11-12T12:04:11.326Z,17.72
2018-11-12T12:05:11.336Z,17.7
2018-11-12T12:06:11.867Z,17.7
2018-11-12T12:07:11.868Z,17.71
2018-11-12T12:08:11.852Z,17.64
2018-11-12T12:09:11.767Z,17.59
2018-11-12T12:10:11.598Z,17.59
2018-11-12T12:11:11.337Z,17.57
2018-11-12T12:12:11.333Z,17.49
2018-11-12T12:13:11.922Z,17.51
2018-11-12T12:14:11.605Z,17.38
2018-11-12T12:15:11.639Z,17.38
2018-11-12T12:16:11.585Z,17.33
2018-11-12T12:17:11.347Z,17.3
2018-11-12T12:18:11.626Z,17.34
2018-11-12T12:19:11.699Z,17.34
2018-11-12T12:20:11.610Z,17.39
2018-11-12T12:21:11.648Z,17.44
2018-11-12T12:22:11.600Z,17.33
2018-11-12T12:23:11.341Z,17.39
2018-11-12T12:24:11.364Z,17.38
2018-11-12T12:25:12.472Z,17.38
2018-11-12T12:26:11.874Z,17.42
2018-11-12T12:27:11.348Z,17.38
2018-11-12T12:28:11.889Z,17.42
2018-11-12T12:29:11.626Z,17.39
2018-11-12T12:30:11.855Z,17.39
2018-11-12T12:31:11.615Z,17.39
2018-11-12T12:32:11.612Z,17.45
2018-11-12T12:33:11.862Z,17.44
2018-11-12T12:34:11.366Z,17.45
2018-11-12T12:35:11.611Z,17.38
2018-11-12T12:36:13.386Z,17.39
2018-11-12T12:37:11.888Z,17.36
2018-11-12T12:38:11.881Z,17.33
2018-11-12T12:39:11.595Z,17.33
2018-11-12T12:40:11.597Z,17.38
2018-11-12T12:41:11.598Z,17.36
2018-11-12T12:42:11.606Z,17.33
2018-11-12T12:43:11.323Z,17.33
2018-11-12T12:44:11.731Z,17.42
2018-11-12T12:45:11.415Z,17.31
2018-11-12T12:46:11.591Z,17.33
2018-11-12T12:47:11.825Z,17.27
2018-11-12T12:48:11.826Z,17.24
2018-11-12T12:49:11.566Z,17.15
2018-11-12T12:50:11.572Z,17.19
2018-11-12T12:51:11.906Z,17.14
2018-11-12T12:52:11.310Z,17.19
2018-11-12T12:53:11.589Z,17.16
2018-11-12T12:54:11.570Z,17.11
2018-11-12T12:55:11.606Z,17.19